Time;durP1;ratioP1;P1;durP2;ratioP2;P2;SDS_P1;SDS_P2;PMS_P1;PMS_P2;Temp;Humidity;BMP_temperature;BMP_pressure;BME280_temperature;BME280_humidity;BME280_pressure;Samples;Min_cycle;Max_cycle;Signal;HPM_P1;HPM_P2
2024/03/07 00:04:54;;;;;;;40.27;29.33;;;7.20;99.90;;;;;;5033207;28;20205;-68
2024/03/07 00:07:20;;;;;;;39.20;27.40;;;7.20;99.90;;;;;;5032780;28;20421;-65
2024/03/07 00:09:46;;;;;;;37.47;28.90;;;7.10;99.90;;;;;;5034282;28;20261;-68
2024/03/07 00:12:12;;;;;;;38.70;29.77;;;7.10;99.90;;;;;;5042480;28;20504;-67
2024/03/07 00:14:37;;;;;;;40.70;28.53;;;7.10;99.90;;;;;;5045666;28;20269;-67
2024/03/07 00:17:03;;;;;;;40.67;30.10;;;7.10;99.90;;;;;;5033466;28;20186;-67
2024/03/07 00:19:29;;;;;;;41.67;29.80;;;7.00;99.90;;;;;;5044324;28;21865;-67
2024/03/07 00:21:59;;;;;;;46.80;29.33;;;7.10;99.90;;;;;;5049659;28;20166;-66
2024/03/07 00:24:24;;;;;;;43.80;31.47;;;7.00;99.90;;;;;;5028713;28;20518;-68
2024/03/07 00:26:51;;;;;;;41.30;30.00;;;7.00;99.90;;;;;;5049610;28;20416;-68
2024/03/07 00:29:19;;;;;;;41.13;30.73;;;6.90;99.90;;;;;;5042974;28;20640;-67
2024/03/07 00:31:48;;;;;;;37.50;27.10;;;6.90;99.90;;;;;;5045682;28;20524;-68
2024/03/07 00:34:18;;;;;;;42.57;29.97;;;6.90;99.90;;;;;;5036557;28;20982;-67
2024/03/07 00:36:44;;;;;;;40.60;27.87;;;6.80;99.90;;;;;;5048510;28;21013;-68
2024/03/07 00:39:11;;;;;;;51.53;33.40;;;6.80;99.90;;;;;;5036948;28;20464;-67
2024/03/07 00:41:41;;;;;;;39.50;29.93;;;6.70;99.90;;;;;;5049981;28;20174;-67
2024/03/07 00:44:09;;;;;;;44.40;29.93;;;6.70;99.90;;;;;;5048887;28;20537;-66
2024/03/07 00:46:36;;;;;;;47.80;32.00;;;6.60;99.90;;;;;;5048827;28;20439;-67
2024/03/07 00:49:02;;;;;;;46.50;31.00;;;6.50;99.90;;;;;;5034214;28;20503;-68
2024/03/07 00:51:28;;;;;;;48.47;28.23;;;6.50;99.90;;;;;;5036719;28;20521;-68
2024/03/07 00:53:53;;;;;;;42.60;32.47;;;6.40;99.90;;;;;;5050903;28;20202;-67
2024/03/07 00:56:19;;;;;;;44.93;32.50;;;6.40;99.90;;;;;;5045296;28;20509;-68
2024/03/07 00:58:45;;;;;;;43.60;30.27;;;6.40;99.90;;;;;;5040002;28;20662;-68
2024/03/07 01:01:11;;;;;;;41.13;30.50;;;6.40;99.90;;;;;;5034092;28;20437;-68
2024/03/07 01:03:37;;;;;;;43.20;29.57;;;6.40;99.90;;;;;;5039838;28;20240;-68
2024/03/07 01:06:03;;;;;;;44.97;30.87;;;6.40;99.90;;;;;;5049385;28;20936;-68
2024/03/07 01:08:28;;;;;;;45.50;32.00;;;6.40;99.90;;;;;;5046000;28;20940;-66
2024/03/07 01:10:54;;;;;;;44.77;30.70;;;6.40;99.90;;;;;;5052934;28;20201;-68
2024/03/07 01:13:22;;;;;;;42.47;33.27;;;6.40;99.90;;;;;;5045439;28;20213;-68
2024/03/07 01:15:48;;;;;;;39.97;31.20;;;6.40;99.90;;;;;;5058688;28;20211;-68
2024/03/07 01:18:14;;;;;;;46.40;31.00;;;6.40;99.90;;;;;;5044798;28;20479;-67
2024/03/07 01:20:40;;;;;;;43.90;30.83;;;6.30;99.90;;;;;;5039986;28;20436;-68
2024/03/07 01:23:07;;;;;;;43.13;30.53;;;6.30;99.90;;;;;;5049088;28;20456;-67
2024/03/07 01:25:33;;;;;;;41.00;30.40;;;6.30;99.90;;;;;;5049872;28;20635;-68
2024/03/07 01:27:59;;;;;;;42.23;31.07;;;6.30;99.90;;;;;;5029219;28;20488;-68
2024/03/07 01:30:27;;;;;;;47.13;31.73;;;6.20;99.90;;;;;;5033847;28;20505;-68
2024/03/07 01:32:54;;;;;;;53.50;35.07;;;6.20;99.90;;;;;;5032867;28;20458;-68
2024/03/07 01:35:19;;;;;;;42.87;31.90;;;6.20;99.90;;;;;;5045829;28;20427;-68
2024/03/07 01:37:45;;;;;;;42.93;33.90;;;6.10;99.90;;;;;;5054120;28;20459;-67
2024/03/07 01:40:11;;;;;;;51.23;35.60;;;6.00;99.90;;;;;;5040359;28;20224;-67
2024/03/07 01:42:36;;;;;;;48.17;32.80;;;6.00;99.90;;;;;;5043098;28;20297;-68
2024/03/07 01:45:02;;;;;;;47.33;32.53;;;6.00;99.90;;;;;;5044932;28;20432;-66
2024/03/07 01:47:28;;;;;;;45.67;34.47;;;5.90;99.90;;;;;;5039014;28;20206;-68
2024/03/07 01:49:54;;;;;;;49.80;34.40;;;5.80;99.90;;;;;;5037710;28;20503;-67
2024/03/07 01:52:21;;;;;;;56.50;33.20;;;5.70;99.90;;;;;;5048697;28;20609;-67
2024/03/07 01:54:47;;;;;;;52.93;34.10;;;5.60;99.90;;;;;;5042381;28;20225;-66
2024/03/07 01:57:13;;;;;;;52.40;34.57;;;5.60;99.90;;;;;;5038814;28;20514;-66
2024/03/07 01:59:39;;;;;;;43.57;32.37;;;5.50;99.90;;;;;;5040108;28;20242;-68
2024/03/07 02:02:05;;;;;;;48.73;33.70;;;5.60;99.90;;;;;;5015175;28;20805;-66
2024/03/07 02:04:30;;;;;;;49.43;34.27;;;5.60;99.90;;;;;;5045813;28;20510;-68
2024/03/07 02:06:56;;;;;;;50.20;34.50;;;5.70;99.90;;;;;;5040162;28;20178;-68
2024/03/07 02:09:23;;;;;;;46.77;31.97;;;5.70;99.90;;;;;;5034829;28;20210;-68
2024/03/07 02:11:49;;;;;;;44.67;32.43;;;5.70;99.90;;;;;;5045907;28;20943;-67
2024/03/07 02:14:15;;;;;;;47.20;32.80;;;5.70;99.90;;;;;;5043245;28;20211;-68
2024/03/07 02:16:40;;;;;;;43.13;33.37;;;5.60;99.90;;;;;;5026999;28;20535;-67
2024/03/07 02:19:07;;;;;;;47.43;33.23;;;5.50;99.90;;;;;;5036082;28;20467;-67
2024/03/07 02:21:33;;;;;;;52.90;34.70;;;5.50;99.90;;;;;;5048328;28;20174;-67
2024/03/07 02:23:58;;;;;;;56.83;35.63;;;5.40;99.90;;;;;;5035642;28;20474;-67
2024/03/07 02:26:24;;;;;;;51.97;33.73;;;5.30;99.90;;;;;;5048296;28;20209;-68
2024/03/07 02:28:49;;;;;;;45.40;32.40;;;5.30;99.90;;;;;;5041845;28;20268;-67
2024/03/07 02:31:15;;;;;;;50.00;30.53;;;5.20;99.90;;;;;;5046611;28;20203;-67
2024/03/07 02:33:41;;;;;;;47.07;34.00;;;5.10;99.90;;;;;;5046085;28;20220;-68
2024/03/07 02:36:07;;;;;;;49.97;34.93;;;5.00;99.90;;;;;;5034618;28;20220;-68
2024/03/07 02:38:32;;;;;;;46.97;34.37;;;4.90;99.90;;;;;;5042075;28;20917;-68
2024/03/07 02:40:59;;;;;;;54.20;33.37;;;4.80;99.90;;;;;;5047853;28;20173;-67
2024/03/07 02:43:24;;;;;;;51.43;35.10;;;4.80;99.90;;;;;;5045293;28;20255;-67
2024/03/07 02:45:50;;;;;;;56.10;36.70;;;4.80;99.90;;;;;;5041496;28;20909;-68
2024/03/07 02:48:18;;;;;;;53.33;34.10;;;4.70;99.90;;;;;;5037888;28;20535;-67
2024/03/07 02:50:43;;;;;;;53.57;33.90;;;4.70;99.90;;;;;;5043373;28;20176;-66
2024/03/07 02:53:09;;;;;;;46.40;32.03;;;4.70;99.90;;;;;;5042714;28;20452;-67
2024/03/07 02:55:34;;;;;;;48.17;32.70;;;4.60;99.90;;;;;;5032137;28;20178;-68
2024/03/07 02:58:00;;;;;;;50.30;32.47;;;4.50;99.90;;;;;;5047324;28;20205;-67
2024/03/07 03:00:32;;;;;;;44.97;31.87;;;4.50;99.90;;;;;;5035269;28;20182;-68
2024/03/07 03:02:57;;;;;;;54.00;35.13;;;4.50;99.90;;;;;;5039589;28;20555;-68
2024/03/07 03:05:24;;;;;;;49.40;34.67;;;4.40;99.90;;;;;;5040328;28;20420;-69
2024/03/07 03:07:53;;;;;;;48.77;33.87;;;4.40;99.90;;;;;;5030186;28;20178;-68
2024/03/07 03:10:32;;;;;;;51.70;33.77;;;4.30;99.90;;;;;;5032056;28;20983;-69
2024/03/07 03:12:59;;;;;;;50.27;33.97;;;4.30;99.90;;;;;;5043768;28;20441;-69
2024/03/07 03:15:24;;;;;;;54.93;34.93;;;4.20;99.90;;;;;;5038797;28;20449;-69
2024/03/07 03:17:51;;;;;;;51.57;36.43;;;4.20;99.90;;;;;;5052843;28;20451;-68
2024/03/07 03:20:33;;;;;;;60.57;39.30;;;4.20;99.90;;;;;;5035941;28;20634;-68
2024/03/07 03:22:59;;;;;;;52.30;34.97;;;4.10;99.90;;;;;;5043068;28;21033;-67
2024/03/07 03:25:24;;;;;;;49.03;34.70;;;4.10;99.90;;;;;;5041429;28;20421;-68
2024/03/07 03:27:50;;;;;;;50.20;34.60;;;4.00;99.90;;;;;;5042276;28;20430;-68
2024/03/07 03:30:18;;;;;;;54.00;33.40;;;3.90;99.90;;;;;;5038361;28;20227;-69
2024/03/07 03:32:47;;;;;;;79.60;36.60;;;3.90;99.90;;;;;;5046982;28;20226;-68
2024/03/07 03:35:16;;;;;;;53.17;35.87;;;3.80;99.90;;;;;;5050624;28;20428;-68
2024/03/07 03:37:42;;;;;;;51.53;34.43;;;3.80;99.90;;;;;;5040301;28;20502;-68
2024/03/07 03:40:09;;;;;;;62.07;35.77;;;3.80;99.90;;;;;;5045327;28;20944;-69
2024/03/07 03:42:38;;;;;;;52.43;35.23;;;3.70;99.90;;;;;;5025839;28;20441;-68
2024/03/07 03:45:08;;;;;;;52.33;33.60;;;3.70;99.90;;;;;;5044608;28;20792;-68
2024/03/07 03:47:37;;;;;;;57.83;35.40;;;3.70;99.90;;;;;;5036616;28;20459;-68
2024/03/07 03:50:07;;;;;;;49.57;33.20;;;3.70;99.90;;;;;;5040030;28;20444;-69
2024/03/07 03:52:35;;;;;;;53.73;34.10;;;3.70;99.90;;;;;;5027614;28;20467;-67
2024/03/07 03:55:01;;;;;;;48.70;32.80;;;3.60;99.90;;;;;;5045199;28;20432;-69
2024/03/07 03:57:29;;;;;;;50.10;32.93;;;3.60;99.90;;;;;;5041180;28;20489;-69
2024/03/07 03:59:55;;;;;;;53.60;36.63;;;3.60;99.90;;;;;;5047617;28;20487;-69
2024/03/07 04:02:24;;;;;;;53.37;34.30;;;3.50;99.90;;;;;;5046137;28;20424;-68
2024/03/07 04:04:51;;;;;;;51.40;33.60;;;3.50;99.90;;;;;;5023523;28;20895;-68
2024/03/07 04:07:17;;;;;;;56.33;35.10;;;3.40;99.90;;;;;;5046011;28;20529;-69
2024/03/07 04:09:43;;;;;;;57.77;35.37;;;3.40;99.90;;;;;;5040608;28;20871;-69
2024/03/07 04:12:10;;;;;;;56.00;32.67;;;3.30;99.90;;;;;;5036435;28;20425;-67
2024/03/07 04:14:37;;;;;;;66.67;34.20;;;3.30;99.90;;;;;;5048729;28;20452;-68
2024/03/07 04:17:02;;;;;;;113.23;36.50;;;3.20;99.90;;;;;;5033394;28;20417;-68
2024/03/07 04:19:30;;;;;;;137.17;36.13;;;3.20;99.90;;;;;;5042317;28;20827;-68
2024/03/07 04:21:56;;;;;;;59.60;34.23;;;3.20;99.90;;;;;;5038299;28;20170;-68
2024/03/07 04:24:22;;;;;;;101.93;36.93;;;3.20;99.90;;;;;;5041974;28;20453;-67
2024/03/07 04:26:47;;;;;;;66.23;35.60;;;3.20;99.90;;;;;;5038594;28;20181;-69
2024/03/07 04:29:12;;;;;;;71.80;38.70;;;3.10;99.90;;;;;;5026900;28;20185;-68
2024/03/07 04:31:38;;;;;;;58.77;33.77;;;3.10;99.90;;;;;;5038790;28;20662;-68
2024/03/07 04:34:04;;;;;;;48.70;32.30;;;3.10;99.90;;;;;;5051304;28;20194;-69
2024/03/07 04:36:32;;;;;;;48.27;31.13;;;3.10;99.90;;;;;;5040602;28;20719;-68
2024/03/07 04:38:58;;;;;;;56.47;36.30;;;3.10;99.90;;;;;;5034168;28;20546;-68
2024/03/07 04:41:24;;;;;;;56.80;34.60;;;3.00;99.90;;;;;;5045593;28;20427;-68
2024/03/07 04:43:49;;;;;;;77.87;34.33;;;3.00;99.90;;;;;;5041063;28;20460;-68
2024/03/07 04:46:15;;;;;;;52.63;33.70;;;2.90;99.90;;;;;;5048087;28;20564;-68
2024/03/07 04:48:41;;;;;;;52.13;34.20;;;2.90;99.90;;;;;;5032633;28;20174;-68
2024/03/07 04:51:06;;;;;;;53.73;34.40;;;2.80;99.90;;;;;;5043576;28;20556;-68
2024/03/07 04:53:32;;;;;;;52.63;33.40;;;2.80;99.90;;;;;;5038749;28;20449;-68
2024/03/07 04:55:58;;;;;;;52.83;35.80;;;2.90;99.90;;;;;;5034870;28;20189;-67
2024/03/07 04:58:23;;;;;;;56.23;36.33;;;2.90;99.90;;;;;;5045878;28;20471;-69
2024/03/07 05:00:49;;;;;;;54.73;33.53;;;2.90;99.90;;;;;;5048518;28;20205;-68
2024/03/07 05:03:14;;;;;;;47.13;34.43;;;2.90;99.90;;;;;;5044240;28;20201;-67
2024/03/07 05:05:41;;;;;;;50.37;33.40;;;2.90;99.90;;;;;;5033898;28;20884;-67
2024/03/07 05:08:06;;;;;;;91.47;39.43;;;2.80;99.90;;;;;;5045342;28;20166;-68
2024/03/07 05:10:32;;;;;;;55.60;36.83;;;2.80;99.90;;;;;;5041738;28;20476;-67
2024/03/07 05:12:58;;;;;;;45.60;34.40;;;2.80;99.90;;;;;;5033249;28;20190;-68
2024/03/07 05:15:25;;;;;;;74.60;35.20;;;2.80;99.90;;;;;;5044462;28;20667;-68
2024/03/07 05:17:51;;;;;;;50.17;33.50;;;2.70;99.90;;;;;;5051127;28;20490;-67
2024/03/07 05:20:17;;;;;;;64.13;33.33;;;2.70;99.90;;;;;;5038692;28;20443;-68
2024/03/07 05:22:52;;;;;;;82.77;38.43;;;2.70;99.90;;;;;;5046284;28;21028;-68
2024/03/07 05:25:18;;;;;;;65.27;30.90;;;2.60;99.90;;;;;;5042359;28;20181;-68
2024/03/07 05:27:45;;;;;;;98.93;32.17;;;2.60;99.90;;;;;;5042624;28;20576;-68
2024/03/07 05:30:13;;;;;;;110.63;33.67;;;2.60;99.90;;;;;;5035652;28;20428;-68
2024/03/07 05:32:39;;;;;;;148.70;37.40;;;2.60;99.90;;;;;;5036992;28;20469;-69
2024/03/07 05:35:06;;;;;;;73.77;33.40;;;2.50;99.90;;;;;;5038945;28;20933;-68
2024/03/07 05:37:31;;;;;;;97.20;36.80;;;2.50;99.90;;;;;;5048453;28;20425;-68
2024/03/07 05:39:57;;;;;;;322.87;47.00;;;2.40;99.90;;;;;;5033374;28;20478;-68
2024/03/07 05:42:24;;;;;;;336.13;44.90;;;2.30;99.90;;;;;;5039987;28;20208;-68
2024/03/07 05:44:50;;;;;;;424.47;56.07;;;2.20;99.90;;;;;;5041102;28;20178;-67
2024/03/07 05:47:17;;;;;;;345.00;49.73;;;2.10;99.90;;;;;;5041136;28;20779;-68
2024/03/07 05:49:43;;;;;;;379.93;48.70;;;2.10;99.90;;;;;;5044713;28;20173;-68
2024/03/07 05:52:08;;;;;;;349.87;45.70;;;2.00;99.90;;;;;;5039885;28;20778;-68
2024/03/07 05:54:35;;;;;;;129.97;35.17;;;2.00;99.90;;;;;;5037791;28;20531;-68
2024/03/07 05:57:01;;;;;;;76.83;30.70;;;2.00;99.90;;;;;;5038495;28;20180;-68
2024/03/07 05:59:30;;;;;;;94.63;30.97;;;2.00;99.90;;;;;;5032674;28;20911;-68
2024/03/07 06:01:56;;;;;;;64.13;30.50;;;1.90;99.90;;;;;;5032756;28;20437;-68
2024/03/07 06:04:22;;;;;;;82.43;31.63;;;2.00;99.90;;;;;;5040091;28;20559;-68
2024/03/07 06:06:48;;;;;;;63.40;32.33;;;2.00;99.90;;;;;;5037668;28;20186;-68
2024/03/07 06:09:14;;;;;;;45.47;29.27;;;2.10;99.90;;;;;;5040121;28;20212;-68
2024/03/07 06:11:43;;;;;;;47.63;28.03;;;2.10;99.90;;;;;;5037940;28;20485;-68
2024/03/07 06:14:13;;;;;;;49.80;28.30;;;2.10;99.90;;;;;;5043991;28;20463;-68
2024/03/07 06:16:39;;;;;;;79.60;29.50;;;2.10;99.90;;;;;;5051723;28;20952;-68
2024/03/07 06:19:09;;;;;;;66.57;31.50;;;2.20;99.90;;;;;;5048782;28;20471;-68
2024/03/07 06:21:36;;;;;;;53.20;30.03;;;2.20;99.90;;;;;;5038215;28;20432;-68
2024/03/07 06:24:02;;;;;;;93.67;30.50;;;2.30;99.90;;;;;;5039854;28;20830;-68
2024/03/07 06:29:16;;;;;;;106.17;34.37;;;2.40;99.90;;;;;;5032043;28;20941;-68
2024/03/07 06:31:43;;;;;;;62.07;30.60;;;2.40;99.90;;;;;;5040311;28;20424;-68
2024/03/07 06:34:08;;;;;;;60.67;29.10;;;2.40;99.90;;;;;;5031109;28;20448;-68
2024/03/07 06:36:35;;;;;;;45.10;30.60;;;2.50;99.90;;;;;;5039446;28;20789;-68
2024/03/07 06:39:02;;;;;;;47.97;30.60;;;2.60;99.90;;;;;;5047716;28;20282;-68
2024/03/07 06:41:28;;;;;;;49.50;30.60;;;2.80;99.90;;;;;;5032220;28;20440;-68
2024/03/07 06:43:55;;;;;;;43.40;31.17;;;2.90;99.90;;;;;;5044660;28;20451;-68
2024/03/07 06:46:20;;;;;;;43.60;31.10;;;3.00;99.90;;;;;;5044585;28;20172;-68
2024/03/07 06:48:46;;;;;;;50.77;34.00;;;3.10;99.90;;;;;;5048187;28;20425;-68
2024/03/07 06:51:12;;;;;;;48.40;33.23;;;3.10;99.90;;;;;;5032371;28;20541;-68
2024/03/07 06:53:39;;;;;;;53.10;32.97;;;3.30;99.90;;;;;;5037680;28;20285;-68
2024/03/07 06:56:06;;;;;;;49.20;33.80;;;3.50;99.90;;;;;;5030914;28;20428;-68
2024/03/07 06:58:32;;;;;;;47.73;33.80;;;3.70;99.90;;;;;;5035401;28;20492;-68
2024/03/07 07:00:59;;;;;;;41.03;29.80;;;3.90;99.90;;;;;;5037332;28;20459;-68
2024/03/07 07:03:24;;;;;;;47.57;32.70;;;4.20;99.90;;;;;;5038842;28;20675;-68
2024/03/07 07:05:50;;;;;;;45.27;32.50;;;4.40;99.90;;;;;;5032102;28;20440;-68
2024/03/07 07:08:16;;;;;;;45.57;32.07;;;4.50;99.90;;;;;;5042301;28;20185;-68
2024/03/07 07:10:42;;;;;;;49.60;34.43;;;4.40;99.90;;;;;;5044140;28;20445;-68
2024/03/07 07:13:13;;;;;;;48.33;33.07;;;4.40;99.90;;;;;;5041345;28;20225;-68
2024/03/07 07:15:39;;;;;;;46.80;32.37;;;4.30;99.90;;;;;;5037217;28;20443;-68
2024/03/07 07:18:05;;;;;;;44.07;31.83;;;4.40;99.90;;;;;;5041464;28;20459;-68
2024/03/07 07:20:34;;;;;;;46.13;32.17;;;4.40;99.90;;;;;;5031759;28;20922;-68
2024/03/07 07:23:02;;;;;;;45.13;31.30;;;4.50;99.90;;;;;;5041009;28;20937;-68
2024/03/07 07:25:27;;;;;;;43.90;30.83;;;4.60;99.90;;;;;;5031500;28;20464;-67
2024/03/07 07:27:53;;;;;;;46.00;32.73;;;4.80;99.90;;;;;;5028591;28;20802;-67
2024/03/07 07:30:26;;;;;;;46.87;32.77;;;4.90;99.90;;;;;;5017476;28;20182;-68
2024/03/07 07:32:56;;;;;;;38.90;28.67;;;4.90;99.90;;;;;;5041614;28;20201;-67
2024/03/07 07:35:22;;;;;;;40.23;29.87;;;5.00;99.90;;;;;;5033079;28;20450;-67
2024/03/07 07:37:51;;;;;;;44.80;32.00;;;5.00;99.90;;;;;;5035291;28;20869;-67
2024/03/07 07:40:18;;;;;;;42.20;30.37;;;4.90;99.90;;;;;;5033390;28;20471;-68
2024/03/07 07:42:46;;;;;;;43.27;30.00;;;5.00;99.90;;;;;;5042856;28;20440;-68
2024/03/07 07:45:15;;;;;;;45.57;31.00;;;5.20;99.90;;;;;;5048931;28;20507;-68
2024/03/07 07:47:59;;;;;;;41.30;29.40;;;5.50;99.90;;;;;;5036495;28;20440;-68
2024/03/07 07:50:25;;;;;;;41.27;28.23;;;5.80;99.90;;;;;;5026697;28;20458;-67
2024/03/07 07:52:53;;;;;;;38.03;28.03;;;6.10;99.90;;;;;;5042593;28;20444;-68
2024/03/07 07:55:20;;;;;;;36.87;27.40;;;6.40;99.90;;;;;;5051025;28;20268;-68
2024/03/07 07:57:48;;;;;;;38.97;29.17;;;6.70;99.90;;;;;;5043950;28;20464;-68
2024/03/07 08:00:25;;;;;;;36.17;28.70;;;6.80;99.90;;;;;;5041218;28;21023;-68
2024/03/07 08:03:03;;;;;;;40.40;28.23;;;6.60;99.90;;;;;;5034952;28;20540;-68
2024/03/07 08:05:33;;;;;;;34.37;26.57;;;6.40;99.90;;;;;;5034723;28;20431;-68
2024/03/07 08:08:06;;;;;;;39.53;30.57;;;6.20;99.90;;;;;;5043218;28;20482;-68
2024/03/07 08:10:33;;;;;;;49.70;30.67;;;6.30;99.90;;;;;;5052256;28;20459;-68
2024/03/07 08:12:59;;;;;;;37.90;29.97;;;6.20;99.90;;;;;;5041900;28;20980;-68
2024/03/07 08:15:27;;;;;;;38.97;28.97;;;6.40;99.90;;;;;;5041925;28;20804;-68
2024/03/07 08:17:55;;;;;;;40.47;30.60;;;6.60;99.90;;;;;;5033499;28;20467;-67
2024/03/07 08:20:21;;;;;;;35.30;27.10;;;6.70;99.90;;;;;;5047567;28;20420;-68
2024/03/07 08:22:47;;;;;;;40.17;29.40;;;6.90;99.90;;;;;;5039105;28;20459;-68
2024/03/07 08:25:14;;;;;;;35.50;28.70;;;7.10;99.90;;;;;;5029385;28;20420;-67
2024/03/07 08:27:41;;;;;;;37.40;27.10;;;7.10;99.90;;;;;;5030334;28;20437;-67
2024/03/07 08:30:12;;;;;;;43.90;29.70;;;6.90;99.90;;;;;;5033273;28;20440;-68
2024/03/07 08:32:42;;;;;;;33.30;27.40;;;6.70;99.90;;;;;;5039358;28;20544;-67
2024/03/07 08:35:11;;;;;;;38.83;28.23;;;6.40;99.90;;;;;;5040854;28;20487;-67
2024/03/07 08:37:42;;;;;;;42.57;31.10;;;6.20;99.90;;;;;;5036447;28;20464;-68
2024/03/07 08:40:19;;;;;;;44.70;31.60;;;5.90;99.90;;;;;;5045231;28;20425;-68
2024/03/07 08:42:46;;;;;;;36.90;27.27;;;5.80;99.90;;;;;;5022925;28;20507;-68
2024/03/07 08:45:11;;;;;;;39.57;29.43;;;5.80;99.90;;;;;;5034096;28;20416;-68
2024/03/07 08:47:38;;;;;;;41.77;30.07;;;5.70;99.90;;;;;;5031880;28;20429;-68
2024/03/07 08:50:08;;;;;;;41.10;28.77;;;5.60;99.90;;;;;;5034948;28;20185;-68
2024/03/07 08:52:36;;;;;;;37.40;28.50;;;5.70;99.90;;;;;;5039972;28;20482;-67
2024/03/07 08:55:03;;;;;;;48.77;29.00;;;5.80;99.90;;;;;;5045113;28;20463;-68
2024/03/07 08:57:29;;;;;;;37.37;27.60;;;5.80;99.90;;;;;;5031073;28;20428;-68
2024/03/07 08:59:54;;;;;;;35.40;26.13;;;5.90;99.90;;;;;;5041061;28;20432;-68
2024/03/07 09:02:20;;;;;;;36.17;26.83;;;5.90;99.90;;;;;;5035425;28;20452;-67
2024/03/07 09:04:46;;;;;;;39.30;28.50;;;6.00;99.90;;;;;;5033927;28;20228;-68
2024/03/07 09:07:13;;;;;;;33.27;25.37;;;6.10;99.90;;;;;;5032642;28;20837;-67
2024/03/07 09:09:38;;;;;;;36.90;28.00;;;6.20;99.90;;;;;;5038957;28;20264;-67
2024/03/07 09:12:05;;;;;;;36.17;27.53;;;6.20;99.90;;;;;;5033320;28;20528;-67
2024/03/07 09:14:30;;;;;;;34.30;26.17;;;6.20;99.90;;;;;;5037937;28;20260;-67
2024/03/07 09:16:56;;;;;;;33.07;25.70;;;6.10;99.90;;;;;;5032762;28;20437;-68
2024/03/07 09:19:24;;;;;;;36.97;26.60;;;6.00;99.90;;;;;;5032850;28;20213;-68
2024/03/07 09:21:52;;;;;;;36.13;26.60;;;6.10;99.90;;;;;;5039733;28;20441;-68
2024/03/07 09:24:21;;;;;;;40.80;26.03;;;6.10;99.90;;;;;;5039762;28;20479;-68
2024/03/07 09:26:51;;;;;;;38.20;29.07;;;6.30;99.90;;;;;;5038843;28;20490;-68
2024/03/07 09:29:18;;;;;;;36.87;26.43;;;6.40;99.90;;;;;;5038606;28;20959;-68
2024/03/07 09:31:44;;;;;;;39.70;27.80;;;6.50;99.90;;;;;;5044643;28;20432;-67
2024/03/07 09:34:09;;;;;;;38.60;28.67;;;6.70;99.90;;;;;;5043576;28;20495;-68
2024/03/07 09:36:35;;;;;;;35.23;27.07;;;6.80;99.90;;;;;;5037925;28;20483;-67
2024/03/07 09:39:00;;;;;;;42.70;30.80;;;7.00;99.90;;;;;;5032967;28;20220;-67
2024/03/07 09:41:26;;;;;;;38.60;27.50;;;7.10;99.90;;;;;;5031259;28;20197;-66
2024/03/07 09:43:55;;;;;;;34.90;27.87;;;7.00;99.90;;;;;;5035538;28;20211;-67
2024/03/07 09:46:23;;;;;;;37.40;27.83;;;7.20;99.90;;;;;;5031907;28;20559;-68
2024/03/07 09:48:53;;;;;;;39.97;28.97;;;7.40;99.90;;;;;;5038016;28;20440;-67
2024/03/07 09:51:20;;;;;;;35.70;28.47;;;7.60;99.90;;;;;;5036251;28;20563;-68
2024/03/07 09:53:49;;;;;;;37.40;28.37;;;7.70;99.90;;;;;;5043057;28;20452;-68
2024/03/07 09:56:19;;;;;;;38.53;28.10;;;7.90;99.90;;;;;;5033868;28;20516;-67
2024/03/07 09:58:48;;;;;;;43.20;28.93;;;8.00;99.90;;;;;;5038247;28;20469;-68
2024/03/07 10:01:15;;;;;;;36.57;28.20;;;8.10;99.90;;;;;;5035419;28;20425;-68
2024/03/07 10:03:44;;;;;;;36.17;28.03;;;8.30;99.90;;;;;;5030736;28;20474;-68
2024/03/07 10:06:10;;;;;;;36.53;28.20;;;8.40;99.90;;;;;;5030481;28;20832;-67
2024/03/07 10:08:36;;;;;;;37.57;28.50;;;8.20;99.90;;;;;;5032507;28;20432;-67
2024/03/07 10:11:02;;;;;;;42.70;28.07;;;7.90;99.90;;;;;;5040718;28;20436;-67
2024/03/07 10:13:28;;;;;;;33.20;27.00;;;7.80;99.90;;;;;;5042156;28;20862;-67
2024/03/07 10:15:59;;;;;;;43.17;29.37;;;7.50;99.90;;;;;;5040292;28;20184;-67
2024/03/07 10:18:27;;;;;;;40.13;27.13;;;7.50;99.90;;;;;;5037855;28;20448;-68
2024/03/07 10:20:54;;;;;;;35.67;25.60;;;7.50;99.90;;;;;;5031830;28;20465;-67
2024/03/07 10:23:20;;;;;;;32.17;24.30;;;7.60;99.90;;;;;;5031513;28;20451;-67
2024/03/07 10:25:47;;;;;;;34.73;26.53;;;7.50;99.90;;;;;;5030168;28;20433;-67
2024/03/07 10:28:12;;;;;;;36.13;24.60;;;7.60;99.90;;;;;;5033013;28;20437;-67
2024/03/07 10:30:44;;;;;;;32.33;25.27;;;7.70;99.90;;;;;;5043562;28;21014;-67
2024/03/07 10:33:11;;;;;;;31.90;21.27;;;7.80;99.90;;;;;;5040418;28;20264;-67
2024/03/07 10:35:37;;;;;;;29.40;21.53;;;9.00;99.90;;;;;;5044153;28;20440;-68
2024/03/07 10:38:06;;;;;;;30.07;23.10;;;11.20;99.90;;;;;;5032158;28;20828;-68
2024/03/07 10:40:33;;;;;;;30.80;21.77;;;10.80;99.90;;;;;;5032152;28;20630;-69
2024/03/07 10:43:02;;;;;;;31.07;22.30;;;10.00;99.90;;;;;;5036580;28;20471;-67
2024/03/07 10:45:30;;;;;;;28.90;22.17;;;9.80;99.90;;;;;;5032922;28;20515;-67
2024/03/07 10:48:01;;;;;;;33.60;26.57;;;8.90;99.90;;;;;;5035810;28;20829;-68
2024/03/07 10:51:05;;;;;;;33.87;24.70;;;8.40;99.90;;;;;;5036344;28;21430;-67
2024/03/07 10:54:05;;;;;;;37.60;22.73;;;8.70;99.90;;;;;;4989900;28;20487;-67
2024/03/07 10:57:08;;;;;;;33.97;22.33;;;8.70;99.90;;;;;;5039224;28;20428;-66
2024/03/07 10:59:38;;;;;;;31.97;22.43;;;8.40;99.90;;;;;;5013178;28;21156;-70
2024/03/07 11:02:27;;;;;;;35.80;25.77;;;8.60;99.90;;;;;;5043698;28;20434;-68
2024/03/07 11:04:53;;;;;;;32.17;24.70;;;8.80;99.90;;;;;;5037009;28;20501;-68
2024/03/07 11:07:21;;;;;;;30.47;22.80;;;8.80;99.90;;;;;;5037416;28;20501;-68
2024/03/07 11:09:51;;;;;;;33.40;23.73;;;8.60;99.90;;;;;;5032873;28;20951;-67
2024/03/07 11:12:24;;;;;;;34.73;24.27;;;8.90;99.90;;;;;;5020501;28;20444;-68
2024/03/07 11:14:51;;;;;;;34.27;24.23;;;9.20;99.90;;;;;;5036555;28;20803;-68
2024/03/07 11:17:20;;;;;;;34.70;24.43;;;9.40;99.90;;;;;;5031898;28;20498;-70
2024/03/07 11:19:47;;;;;;;34.03;23.20;;;9.30;99.90;;;;;;5031922;28;20543;-68
2024/03/07 11:22:28;;;;;;;33.20;23.33;;;9.30;99.90;;;;;;5012715;28;20476;-67
2024/03/07 11:25:06;;;;;;;31.87;22.67;;;9.10;99.90;;;;;;5038950;28;20428;-68
2024/03/07 11:27:36;;;;;;;32.30;23.90;;;9.10;99.90;;;;;;5028382;28;20439;-67
2024/03/07 11:30:09;;;;;;;35.40;24.70;;;9.20;99.90;;;;;;5036043;28;20795;-68
2024/03/07 11:32:38;;;;;;;30.70;22.40;;;9.20;99.90;;;;;;5022597;28;20431;-68
2024/03/07 11:35:07;;;;;;;32.43;24.63;;;9.60;99.90;;;;;;5041923;28;20443;-68
2024/03/07 11:37:48;;;;;;;34.73;23.57;;;10.00;99.90;;;;;;5039613;28;20819;-68
2024/03/07 11:40:20;;;;;;;30.10;23.57;;;9.60;99.90;;;;;;5041486;28;20485;-67
2024/03/07 11:42:48;;;;;;;30.67;23.97;;;10.10;99.90;;;;;;5034736;28;20492;-67
2024/03/07 11:45:24;;;;;;;34.70;23.67;;;11.40;99.90;;;;;;5038382;28;20433;-68
2024/03/07 11:48:00;;;;;;;37.93;26.23;;;12.40;99.90;;;;;;5042008;28;20988;-68
2024/03/07 11:50:29;;;;;;;29.57;23.67;;;11.50;99.90;;;;;;5033085;28;20440;-68
2024/03/07 11:52:57;;;;;;;37.33;26.70;;;11.10;99.90;;;;;;5036190;28;20543;-68
2024/03/07 11:55:23;;;;;;;33.77;26.77;;;10.90;99.90;;;;;;5033553;28;20854;-68
2024/03/07 11:57:52;;;;;;;36.50;26.80;;;10.30;99.90;;;;;;5033898;28;20457;-66
2024/03/07 12:00:19;;;;;;;33.00;26.17;;;10.10;99.90;;;;;;5036915;28;20522;-66
2024/03/07 12:02:44;;;;;;;34.70;25.53;;;10.10;99.90;;;;;;5038078;28;20506;-66
2024/03/07 12:05:10;;;;;;;38.67;25.73;;;10.30;99.90;;;;;;5035554;28;20448;-66
2024/03/07 12:07:36;;;;;;;34.73;24.07;;;10.40;99.90;;;;;;5043612;28;20268;-66
2024/03/07 12:10:05;;;;;;;32.57;24.20;;;11.20;99.90;;;;;;5039093;28;20178;-66
2024/03/07 12:12:31;;;;;;;38.10;30.03;;;11.60;99.90;;;;;;5041569;28;20869;-66
2024/03/07 12:14:56;;;;;;;33.20;25.73;;;11.70;99.90;;;;;;5037933;28;20993;-66
2024/03/07 12:17:23;;;;;;;34.67;25.43;;;11.40;99.90;;;;;;5038694;28;20511;-67
2024/03/07 12:19:52;;;;;;;33.60;27.53;;;11.10;99.90;;;;;;5022192;28;20460;-66
2024/03/07 12:22:24;;;;;;;38.50;26.30;;;10.70;99.90;;;;;;5040883;28;20436;-66
2024/03/07 12:25:08;;;;;;;35.70;26.70;;;10.20;99.90;;;;;;5041551;28;20520;-66
2024/03/07 12:27:34;;;;;;;36.23;27.40;;;9.70;99.90;;;;;;5038265;28;20463;-67
2024/03/07 12:30:07;;;;;;;36.30;25.70;;;9.80;99.90;;;;;;5036388;28;20460;-66
2024/03/07 12:32:33;;;;;;;39.43;26.50;;;10.10;99.90;;;;;;5034908;28;20586;-67
2024/03/07 12:34:58;;;;;;;38.60;28.43;;;10.00;99.90;;;;;;5039761;28;20560;-67
2024/03/07 12:37:26;;;;;;;37.77;28.53;;;9.40;99.90;;;;;;5013909;28;20297;-67
2024/03/07 12:40:00;;;;;;;43.10;30.13;;;9.60;99.90;;;;;;5033055;28;20758;-67
2024/03/07 12:42:30;;;;;;;43.80;29.43;;;9.70;99.90;;;;;;5036025;28;20491;-68
2024/03/07 12:44:59;;;;;;;41.10;29.23;;;9.00;99.90;;;;;;5041994;28;20823;-67